Terminal Aerodrome Forecast
Issued by NWS

Home | Current Version | Previous Version | Text Only | Print | Product List | Glossary On
Versions: 1 2 3 4 5 6 7 8 9 10 11 12 13 14 15 16 17 18 19 20
000
FTUS45 KREV 250800 AAA
TAFRNO
TAF AMD
KRNO 250822Z 2508/2606 20017G30KT P6SM SCT070 BKN120
     FM251200 23012G24KT P6SM VCSH SCT040 BKN080
     FM251800 26016G28KT P6SM VCSH BKN040 BKN060
     FM260100 31012G20KT P6SM -SHRA BKN035 OVC050=

USA.gov is the U.S. government's official web portal to all federal, state and local government web resources and services.